»·PEaware :: UAL2304 KBOI-KPDX

UAL2304 :: KBOI-KPDX

FLIGHT INFORMATION

Flight Status: Arrived
Operator:
United Airlines
More flights by this operator :: More flights under this callsign
Pilot: Patricio R. (14780)
Aircraft: BOEING 737-200
(B732)
More flights by this aircraft type
Origin: KBOI Boise Air Terminal/Gowen
United States
Destination: KPDX Portland Intl
United States
More flights between these airports :: More routes between these airports
Route: BOI V500 IMB V497 LTJ V182 BTG
File this flight plan on PilotEdge
Remarks: PBN / A1B2 DOF / 180427 REG / N275SB EET / KZSE0018 OPR / UAL RMK / TCAS SIMBRIEF
Altitude:
(Current/Filed)
28,000ft
Speed:
(Current/Filed)
442kts
Departed: 27-Apr-18 09:56 AM
Arrived: 27-Apr-18 10:58 AM
Distance/Time
Traveled:
298nm/1:02
Distance/Time
To Go:
Arrived

Flight Plot

Page will automatically refresh every two minutes.

Flight plan parsing failed; only flown route is shown


Map Options




Map Legend


Flown Route
Filed Route
Departure Airport
Arrival Airport
Navaid (VOR, NDB)
Fix

Horizontal Profiles

Position Reports

Time Latitude Longitude Heading Altitude Ground
Speed
27-Apr-18 09:16 43.566877 -116.219288 29 2847ft 0kts
27-Apr-18 09:17 43.566877 -116.219288 29 2847ft 0kts
27-Apr-18 09:18 43.566877 -116.219288 29 2847ft 0kts
27-Apr-18 09:19 43.566877 -116.219288 29 2847ft 0kts
27-Apr-18 09:20 43.566877 -116.219288 29 2847ft 0kts
27-Apr-18 09:21 43.566877 -116.219288 29 2847ft 0kts
27-Apr-18 09:22 43.566877 -116.219288 29 2847ft 0kts
27-Apr-18 09:23 43.566877 -116.219288 29 2847ft 0kts
27-Apr-18 09:24 43.566877 -116.219288 29 2847ft 0kts
27-Apr-18 09:25 43.566877 -116.219288 29 2847ft 0kts
27-Apr-18 09:26 43.566877 -116.219288 29 2847ft 0kts
27-Apr-18 09:27 43.566877 -116.219288 29 2847ft 0kts
27-Apr-18 09:28 43.566877 -116.219288 29 2847ft 0kts
27-Apr-18 09:29 43.566877 -116.219288 29 2847ft 0kts
27-Apr-18 09:30 43.566877 -116.219288 29 2847ft 0kts
27-Apr-18 09:31 43.566877 -116.219288 29 2847ft 0kts
27-Apr-18 09:32 43.566877 -116.219288 29 2847ft 0kts
27-Apr-18 09:33 43.566877 -116.219288 29 2847ft 0kts
27-Apr-18 09:34 43.566877 -116.219288 29 2847ft 0kts
27-Apr-18 09:35 43.566877 -116.219288 29 2847ft 0kts
27-Apr-18 09:36 43.566877 -116.219288 29 2847ft 0kts
27-Apr-18 09:37 43.566877 -116.219288 29 2847ft 0kts
27-Apr-18 09:38 43.566877 -116.219288 29 2847ft 0kts
27-Apr-18 09:39 43.566877 -116.219288 29 2847ft 0kts
27-Apr-18 09:40 43.566877 -116.219288 29 2847ft 0kts
27-Apr-18 09:41 43.566877 -116.219288 29 2847ft 0kts
27-Apr-18 09:42 43.566877 -116.219288 29 2847ft 0kts
27-Apr-18 09:43 43.566877 -116.219288 29 2847ft 0kts
27-Apr-18 09:44 43.566877 -116.219288 29 2847ft 0kts
27-Apr-18 09:45 43.566877 -116.219288 29 2847ft 0kts
27-Apr-18 09:46 43.566844 -116.219313 29 2847ft 2kts
27-Apr-18 09:47 43.566343 -116.219521 338 2847ft 2kts
27-Apr-18 09:48 43.566139 -116.219229 294 2847ft 0kts
27-Apr-18 09:49 43.566140 -116.219229 295 2847ft 0kts
27-Apr-18 09:50 43.566359 -116.219885 296 2847ft 7kts
27-Apr-18 09:51 43.566727 -116.223020 294 2847ft 16kts
27-Apr-18 09:52 43.569319 -116.230566 294 2847ft 23kts
27-Apr-18 09:53 43.570907 -116.235683 245 2847ft 0kts
27-Apr-18 09:54 43.569369 -116.234308 115 2847ft 37kts
27-Apr-18 09:55 43.552821 -116.185205 115 3584ft 205kts
27-Apr-18 09:56 43.526398 -116.110430 121 6550ft 225kts
27-Apr-18 09:57 43.508465 -116.026752 68 8542ft 261kts
27-Apr-18 09:58 43.576282 -115.980013 13 10150ft 304kts
27-Apr-18 09:59 43.659538 -115.952688 13 12378ft 314kts
27-Apr-18 10:00 43.745469 -115.938768 334 14453ft 318kts
27-Apr-18 10:01 43.781699 -116.039988 273 15973ft 322kts
27-Apr-18 10:02 43.789732 -116.168958 273 17008ft 333kts
27-Apr-18 10:03 43.797707 -116.292715 273 19062ft 326kts
27-Apr-18 10:04 43.806642 -116.418792 273 20486ft 334kts
27-Apr-18 10:05 43.816264 -116.548044 274 21773ft 342kts
27-Apr-18 10:06 43.826297 -116.677906 273 22930ft 349kts
27-Apr-18 10:07 43.836954 -116.811359 273 23924ft 358kts
27-Apr-18 10:08 43.833162 -116.948154 269 24928ft 362kts
27-Apr-18 10:09 43.856048 -117.085540 287 25832ft 373kts
27-Apr-18 10:10 43.894795 -117.219563 291 26662ft 379kts
27-Apr-18 10:11 43.937444 -117.353946 291 27380ft 385kts
27-Apr-18 10:12 43.981307 -117.490161 292 27949ft 393kts
27-Apr-18 10:13 44.026272 -117.629918 292 27950ft 402kts
27-Apr-18 10:14 44.068134 -117.763562 290 27949ft 407kts
27-Apr-18 10:15 44.114325 -117.907485 292 27944ft 413kts
27-Apr-18 10:16 44.158716 -118.051178 288 27961ft 414kts
27-Apr-18 10:17 44.201889 -118.200450 290 27907ft 419kts
27-Apr-18 10:18 44.247309 -118.350677 290 27907ft 422kts
27-Apr-18 10:19 44.293064 -118.501619 290 27907ft 424kts
27-Apr-18 10:20 44.337843 -118.650051 289 27908ft 426kts
27-Apr-18 10:21 44.382109 -118.801100 289 27897ft 428kts
27-Apr-18 10:22 44.427695 -118.954729 289 27899ft 429kts
27-Apr-18 10:23 44.473511 -119.109404 289 27899ft 431kts
27-Apr-18 10:24 44.519145 -119.264397 289 27898ft 432kts
27-Apr-18 10:25 44.564750 -119.420262 289 27900ft 434kts
27-Apr-18 10:26 44.610315 -119.576995 289 27900ft 435kts
27-Apr-18 10:27 44.663378 -119.722599 312 27944ft 442kts
27-Apr-18 10:28 44.751580 -119.843124 315 27902ft 446kts
27-Apr-18 10:29 44.843412 -119.959912 316 27902ft 447kts
27-Apr-18 10:30 44.935532 -120.077676 316 27929ft 447kts
27-Apr-18 10:31 45.023893 -120.193346 314 27931ft 448kts
27-Apr-18 10:32 45.114743 -120.312513 316 27926ft 450kts
27-Apr-18 10:33 45.206495 -120.430431 316 27890ft 451kts
27-Apr-18 10:34 45.283500 -120.530610 316 27892ft 451kts
27-Apr-18 10:35 45.370401 -120.644117 316 27576ft 401kts
27-Apr-18 10:36 45.447123 -120.747006 315 25787ft 392kts
27-Apr-18 10:37 45.525977 -120.851489 315 23955ft 383kts
27-Apr-18 10:38 45.602556 -120.952887 315 22240ft 373kts
27-Apr-18 10:39 45.677481 -121.052410 315 20561ft 364kts
27-Apr-18 10:40 45.722590 -121.169980 262 18863ft 340kts
27-Apr-18 10:41 45.719009 -121.301919 268 17192ft 336kts
27-Apr-18 10:42 45.721729 -121.433908 269 15622ft 329kts
27-Apr-18 10:43 45.724479 -121.562969 270 14077ft 322kts
27-Apr-18 10:44 45.726811 -121.684977 268 12580ft 318kts
27-Apr-18 10:45 45.728307 -121.809659 260 11016ft 313kts
27-Apr-18 10:46 45.689977 -121.916444 235 9526ft 301kts
27-Apr-18 10:47 45.648088 -122.017129 235 8249ft 291kts
27-Apr-18 10:48 45.601647 -122.096273 206 6742ft 271kts
27-Apr-18 10:49 45.537470 -122.147393 206 5091ft 260kts
27-Apr-18 10:50 45.479102 -122.193336 210 4997ft 235kts
27-Apr-18 10:51 45.465137 -122.282567 285 3986ft 246kts
27-Apr-18 10:52 45.489543 -122.350291 296 3986ft 222kts
27-Apr-18 10:53 45.517944 -122.423230 296 3520ft 193kts
27-Apr-18 10:54 45.542781 -122.486815 296 2072ft 163kts
27-Apr-18 10:55 45.562517 -122.536653 295 934ft 137kts
27-Apr-18 10:56 45.580651 -122.584152 295 69ft 137kts
27-Apr-18 10:57 45.592114 -122.613164 325 38ft 25kts
27-Apr-18 10:58 45.593043 -122.613157 28 38ft 0kts
27-Apr-18 10:59 45.592033 -122.608638 120 38ft 25kts
27-Apr-18 11:00 45.591861 -122.598657 31 38ft 19kts
27-Apr-18 11:01 45.591410 -122.592301 119 38ft 22kts
27-Apr-18 11:02 45.590212 -122.591592 208 38ft 0kts
27-Apr-18 11:03 45.590212 -122.591592 208 38ft 0kts

Navigation Log

Ident Type
Flight plan parsing failed, navigation log unavailable